Weather observations for the past three days for
New Ulm Municipal Airport
Metric (Imperial)
Date Time (cdt) Wind (kph) Vis. (km) Weather Sky Cond. Temperature (ºC) Relative Humidity Wind Chill (°C) Heat Index (°C) Pressure Precipitation (cm)
Air Dwpt 6 hour altimeter (cm) sea level (mb) 1 hr 3 hr 6 hr
Max. Min.
10 06:55 SW 7 16.09 Partly Cloudy SCT100 4 -2 65% 2 76.43 0.0
10 06:35 Calm 16.09 Overcast OVC100 4 -2 65% 76.43 0.0
10 06:15 W 6 16.09 Overcast OVC100 4 -2 65% 76.43 0.0
10 05:55 Calm 16.09 Mostly Cloudy BKN100 4 -2 65% 76.43 0.0
10 05:35 W 6 16.09 Partly Cloudy SCT100 3 -2 70% 76.43 0.0
10 05:15 W 7 16.09 Fair CLR 4 -2 65% 2 76.4 0.0
10 04:55 W 11 16.09 Partly Cloudy SCT090 4 -2 65% 2 76.38 0.0
10 04:35 W 13 16.09 Mostly Cloudy BKN090 4 -2 65% 1 76.38 0.0
10 04:15 W 11 16.09 Mostly Cloudy BKN090 3 -2 70% 0 76.35 0.0
10 03:55 Calm 16.09 Partly Cloudy SCT090 4 -2 65% 76.35 0.0
10 03:35 W 7 16.09 Mostly Cloudy BKN090 4 -2 65% 2 76.33 0.0
10 03:15 W 6 16.09 Overcast OVC090 4 -3 61% 76.33 0.0
10 02:55 W 6 16.09 Mostly Cloudy BKN090 4 -3 61% 76.3 0.0
10 02:35 W 7 16.09 Partly Cloudy SCT090 4 -3 61% 2 76.3 0.0
10 02:15 W 6 16.09 Partly Cloudy SCT090 5 -3 57% 76.3 0.0
10 01:55 W 7 16.09 Mostly Cloudy BKN090 5 -2 61% 4 76.3 0.0
10 01:35 W 9 16.09 Mostly Cloudy BKN090 5 -3 57% 3 76.28 0.0
10 01:15 W 7 16.09 Mostly Cloudy BKN090 5 -3 57% 4 76.28 0.0
10 00:55 Calm 16.09 Fair CLR 5 -3 57% 76.28 0.0
10 00:35 Calm 16.09 Fair CLR 7 -3 49% 76.28 0.0
10 00:15 NW 7 16.09 Fair CLR 7 -3 49% 6 76.28 0.0
09 23:55 NW 7 16.09 Fair CLR 7 -3 49% 6 76.25 0.0
09 23:35 NW 9 16.09 Fair CLR 7 -3 49% 5 76.25 0.0
09 23:15 NW 9 16.09 Fair CLR 7 -3 49% 5 76.25 0.0
09 22:55 NW 9 16.09 Fair CLR 8 -3 46% 7 76.25 0.0
09 22:35 NW 9 16.09 Fair CLR 9 -3 43% 8 76.23 0.0
09 22:15 NW 11 16.09 Fair CLR 11 -2 41% 76.2 0.0
09 21:55 N 15 16.09 Fair CLR 11 -2 41% 76.2 0.0
09 21:35 N 15 16.09 Fair CLR 12 -2 38% 76.17 0.0
09 21:15 N 15 16.09 Fair CLR 12 -2 38% 76.12 0.0
09 20:55 N 17 16.09 Fair CLR 12 -2 38% 76.1 0.0
09 20:35 N 19 16.09 Fair CLR 13 -2 36% 76.07 0.0
09 20:15 N 24 G 31 16.09 Fair CLR 13 -2 36% 76.05 0.0
09 19:55 N 22 G 28 16.09 Fair CLR 14 -2 33% 76.02 0.0
09 19:35 N 20 G 35 16.09 Fair CLR 14 -2 33% 76 0.0
09 19:15 NW 28 16.09 Fair CLR 14 -2 33% 76 0.0
09 18:55 NW 22 G 39 16.09 Fair CLR 15 -2 31% 75.97 0.0
09 18:35 N 24 G 31 16.09 Fair CLR 15 -2 31% 75.95 0.0
09 18:15 NW 26 G 44 16.09 Fair CLR 15 -2 31% 75.95 0.0
09 17:55 N 24 G 37 16.09 Fair CLR 16 -2 29% 75.92 0.0
09 17:35 N 20 G 43 16.09 Fair CLR 16 -3 27% 75.9 0.0
09 17:15 N 30 G 44 16.09 Fair CLR 16 -3 27% 75.9 0.0
09 16:55 N 22 G 46 16.09 Partly Cloudy SCT100 16 -3 27% 75.87 0.0
09 16:35 N 31 G 41 16.09 Fair CLR 16 -3 27% 75.87 0.0
09 16:15 NW 37 G 50 16.09 Fair and Breezy CLR 17 -2 27% 75.84 0.0
09 15:55 N 24 G 46 16.09 Fair CLR 17 -2 27% 75.84 0.0
09 15:35 N 28 G 44 16.09 Fair CLR 17 -2 27% 75.82 0.0
09 15:15 N 17 G 44 16.09 Fair CLR 17 -1 30% 75.82 0.0
09 14:55 N 28 G 43 16.09 Fair CLR 17 -2 27% 75.79 0.0
09 14:35 NW 35 G 41 16.09 Partly Cloudy and Breezy SCT100 17 0 32% 75.79 0.0
09 14:15 NW 39 G 52 16.09 Fair and Breezy CLR 16 0 34% 75.79 0.0
09 13:55 NW 28 G 48 16.09 Fair CLR 16 1 36% 75.79 0.0
09 13:35 NW 37 G 52 16.09 Fair and Breezy CLR 16 0 34% 75.77 0.0
09 13:15 N 31 G 48 16.09 Fair CLR 16 1 36% 75.77 0.0
09 12:55 NW 26 G 44 16.09 Fair CLR 16 1 36% 75.74 0.0
09 12:35 N 30 G 43 16.09 Fair CLR 16 1 36% 75.74 0.0
09 11:55 N 24 G 46 16.09 Fair CLR 15 2 42% 75.72 0.0
09 11:35 NW 26 G 44 16.09 Fair CLR 15 2 42% 75.72 0.0
09 11:15 N 28 G 46 16.09 Fair CLR 14 1 41% 75.72 0.0
09 10:55 N 19 G 41 16.09 Fair CLR 14 2 44% 75.69 0.0
09 10:35 N 19 G 35 16.09 Fair CLR 14 3 48% 75.69 0.0
09 10:15 N 30 G 39 16.09 Fair CLR 13 3 51% 75.69 0.0
09 09:55 N 24 G 41 16.09 Partly Cloudy SCT035 13 5 59% 75.67 0.0
09 09:35 N 30 G 37 16.09 Partly Cloudy SCT031 13 6 63% 75.64 0.0
09 09:15 N 19 G 39 16.09 Partly Cloudy SCT029 12 6 67% 75.62 0.0
09 08:55 N 28 G 48 16.09 Partly Cloudy SCT021 12 7 72% 75.59 0.0
09 08:35 NW 26 G 33 16.09 Mostly Cloudy BKN021 12 8 77% 75.57 0.0
09 08:15 N 31 G 46 16.09 Fair CLR 12 8 77% 75.51 0.0
09 07:55 NW 31 G 37 16.09 Partly Cloudy SCT065 11 9 88% 75.49 0.0
09 07:35 NW 31 16.09 Mostly Cloudy BKN065 11 9 88% 75.49 0.0
09 07:15 NW 28 G 39 16.09 Mostly Cloudy BKN065 BKN090 11 9 88% 75.44 0.0
09 06:55 NW 26 16.09 Overcast BKN065 OVC080 11 8 82% 75.41 0.0
09 06:35 W 17 16.09 Rain BKN065 OVC090 10 7 82% 8 75.39 0.0
09 06:15 NW 28 16.09 Light Rain SCT050 BKN065 OVC080 11 8 82% 75.39 0.0
09 05:55 NW 11 16.09 Light Rain SCT050 BKN065 OVC090 10 4 67% 9 75.36 0.0
09 05:35 W 7 16.09 Overcast SCT075 OVC100 10 4 67% 9 75.39 0.0
09 05:15 NW 9 16.09 Mostly Cloudy BKN100 10 3 62% 9 75.39 0.0
09 04:55 N 13 16.09 Partly Cloudy SCT110 11 3 58% 75.39 0.0
09 04:35 NW 17 16.09 Overcast OVC110 11 2 54% 75.36 0.0
09 04:15 NW 7 16.09 Overcast OVC110 9 2 62% 8 75.31 0.0
09 03:55 NW 19 G 37 16.09 Mostly Cloudy BKN110 9 2 62% 7 75.31 0.0
09 03:35 SW 7 16.09 Partly Cloudy SCT100 9 1 58% 8 75.21 0.0
09 03:15 SW 9 16.09 Fair CLR 9 1 58% 8 75.18 0.0
09 02:55 SW 9 16.09 Fair CLR 9 1 58% 8 75.21 0.0
09 02:35 SW 11 16.09 Fair CLR 9 1 58% 8 75.21 0.0
09 02:15 SW 13 16.09 Fair CLR 9 1 58% 7 75.21 0.0
09 01:55 SW 11 16.09 Fair CLR 9 1 58% 8 75.23 0.0
09 01:35 SW 11 16.09 Fair CLR 9 1 58% 8 75.26 0.0
09 01:15 SW 9 16.09 Fair CLR 10 1 54% 9 75.29 0.0
09 00:55 SW 11 16.09 Fair CLR 11 1 50% 75.29 0.0
09 00:35 SW 7 16.09 Fair CLR 11 0 47% 75.31 0.0
09 00:15 SW 7 16.09 Fair CLR 9 0 54% 8 75.34 0.0
08 23:55 W 7 16.09 Fair CLR 11 0 47% 75.34 0.0
08 23:35 W 9 16.09 Fair CLR 11 -1 44% 75.36 0.0
08 23:15 W 7 16.09 Fair CLR 13 0 41% 75.36 0.0
08 22:55 NW 9 16.09 Fair CLR 13 0 41% 75.39 0.0
08 22:35 NW 11 16.09 Fair CLR 13 0 41% 75.39 0.0
08 22:15 NW 7 16.09 Fair CLR 15 0 36% 75.36 0.0
08 21:55 NW 15 16.09 Fair CLR 16 1 36% 75.36 0.0
08 21:35 NW 19 16.09 Fair CLR 17 1 34% 75.36 0.0
08 21:15 NW 26 16.09 Fair CLR 17 1 34% 75.31 0.0
08 20:55 NW 28 G 35 16.09 Fair CLR 18 1 32% 75.29 0.0
08 20:35 NW 17 16.09 Fair CLR 18 1 32% 75.29 0.0
08 20:15 NW 28 G 37 16.09 Fair CLR 19 1 30% 75.26 0.0
08 19:55 NW 28 G 41 16.09 Fair CLR 20 1 28% 75.23 0.0
08 19:35 NW 33 G 44 16.09 Fair and Breezy CLR 21 1 27% 75.23 0.0
08 19:15 NW 33 16.09 Fair and Breezy CLR 21 2 29% 75.21 0.0
08 18:55 NW 35 G 48 16.09 Fair and Breezy CLR 22 3 29% 75.21 0.0
08 18:35 NW 37 G 54 16.09 Fair and Breezy CLR 22 3 29% 75.21 0.0
08 18:15 NW 33 G 54 16.09 Fair and Breezy CLR 22 3 29% 75.21 0.0
08 17:55 NW 35 G 52 16.09 Fair and Breezy CLR 23 3 27% 75.21 0.0
08 17:35 NW 37 G 52 16.09 Fair and Breezy CLR 23 4 29% 75.18 0.0
08 17:15 NW 39 G 48 16.09 Partly Cloudy and Breezy SCT110 23 4 29% 75.18 0.0
08 16:55 NW 28 G 35 16.09 Partly Cloudy SCT110 22 4 31% 75.18 0.0
08 16:35 NW 24 16.09 Partly Cloudy SCT100 23 4 29% 75.21 0.0
08 16:15 W 22 G 33 16.09 Partly Cloudy SCT110 23 4 29% 75.21 0.0
08 15:55 NW 26 G 33 16.09 Partly Cloudy SCT110 22 3 29% 75.23 0.0
08 15:35 W 22 16.09 Partly Cloudy SCT100 23 3 27% 75.26 0.0
08 15:15 NW 20 G 33 16.09 Partly Cloudy SCT100 23 3 27% 75.29 0.0
08 14:55 NW 17 G 31 16.09 Partly Cloudy SCT100 22 3 29% 75.31 0.0
08 14:35 W 24 G 44 16.09 Partly Cloudy SCT100 22 4 31% 75.34 0.0
08 14:15 W 31 G 52 16.09 Fair CLR 21 2 29% 75.36 0.0
08 13:55 W 28 G 44 16.09 Partly Cloudy SCT120 22 2 27% 75.36 0.0
08 13:35 NW 30 G 37 16.09 Partly Cloudy SCT120 21 1 27% 75.39 0.0
08 13:15 W 28 G 35 16.09 Partly Cloudy SCT120 21 1 27% 75.39 0.0
08 12:55 NW 24 G 41 16.09 Fair CLR 22 1 25% 75.41 0.0
08 12:35 NW 26 G 37 16.09 Fair CLR 22 1 25% 75.41 0.0
08 12:15 W 19 G 39 16.09 Fair CLR 21 1 27% 75.46 0.0
08 11:55 W 13 G 35 16.09 Fair CLR 21 0 25% 75.49 0.0
08 11:35 W 22 G 30 16.09 Fair CLR 20 1 28% 75.51 0.0
08 11:15 NW 17 G 26 16.09 Partly Cloudy SCT100 19 1 30% 75.54 0.0
08 10:55 NW 17 G 30 16.09 Mostly Cloudy BKN100 19 1 30% 75.54 0.0
08 10:35 W 24 G 33 16.09 Mostly Cloudy BKN100 19 0 28% 75.54 0.0
08 10:15 W 26 G 35 16.09 Mostly Cloudy BKN100 19 1 30% 75.57 0.0
08 09:55 W 19 16.09 Mostly Cloudy BKN100 18 2 34% 75.59 0.0
08 09:35 SW 19 G 26 16.09 Partly Cloudy SCT100 17 1 34% 75.59 0.0
08 09:15 SW 17 16.09 Partly Cloudy SCT110 16 1 36% 75.59 0.0
08 08:55 SW 19 16.09 Partly Cloudy SCT110 14 1 41% 75.62 0.0
08 08:35 SW 11 16.09 Partly Cloudy SCT110 13 1 44% 75.62 0.0
08 08:15 SW 11 16.09 Partly Cloudy SCT110 12 1 47% 75.64 0.0
08 07:55 SW 13 16.09 Partly Cloudy SCT110 11 0 47% 75.64 0.0
08 07:35 SW 11 16.09 Partly Cloudy SCT110 9 -1 50% 8 75.64 0.0
08 07:15 SW 9 16.09 Fair CLR 8 -1 53% 7 75.64 0.0
08 06:55 SW 9 16.09 Fair CLR 7 -2 53% 5 75.64 0.0
08 06:35 S 9 16.09 Fair CLR 6 -2 57% 4 75.64 0.0
08 06:15 SW 9 16.09 Fair CLR 6 -2 57% 4 75.64 0.0
08 05:55 S 9 16.09 Fair CLR 7 -3 49% 5 75.64 0.0
08 05:35 SW 11 16.09 Fair CLR 6 -3 53% 4 75.64 0.0
08 05:15 SW 7 16.09 Fair CLR 6 -3 53% 5 75.64 0.0
08 04:55 S 11 16.09 Fair CLR 7 -2 53% 5 75.64 0.0
08 04:35 SW 9 16.09 Fair CLR 6 -2 57% 4 75.64 0.0
08 04:15 S 9 16.09 Fair CLR 6 -2 57% 4 75.64 0.0
08 03:55 SW 9 16.09 Fair CLR 6 -2 57% 4 75.67 0.0
08 03:35 S 11 16.09 Fair CLR 5 -2 61% 3 75.67 0.0
08 03:15 SW 7 16.09 Fair CLR 5 -2 61% 4 75.69 0.0
08 02:55 S 9 16.09 Fair CLR 6 -2 57% 4 75.69 0.0
08 02:35 S 9 16.09 Fair CLR 6 -2 57% 4 75.69 0.0
08 02:15 S 11 16.09 Fair CLR 6 -2 57% 4 75.69 0.0
08 01:55 S 11 16.09 Fair CLR 5 -3 57% 3 75.72 0.0
08 01:35 S 11 16.09 Fair CLR 5 -3 57% 3 75.72 0.0
08 01:15 S 11 16.09 Fair CLR 4 -3 61% 2 75.74 0.0
08 00:55 S 9 16.09 Fair CLR 6 -2 57% 4 75.74 0.0
08 00:35 S 6 16.09 Fair CLR 6 -2 57% 75.74 0.0
08 00:15 S 7 16.09 Fair CLR 6 -2 57% 5 75.74 0.0
07 23:55 S 6 16.09 Fair CLR 8 -3 46% 75.77 0.0
07 23:35 Calm 16.09 Fair CLR 8 -3 46% 75.77 0.0
07 23:15 Calm 16.09 Fair CLR 9 -3 43% 75.77 0.0
07 22:55 Calm 16.09 Fair CLR 11 -3 38% 75.77 0.0
07 22:35 Calm 16.09 Fair CLR 10 -3 40% 75.79 0.0
07 22:15 Calm 16.09 Fair CLR 11 -3 38% 75.79 0.0
07 21:55 Calm 16.09 Fair CLR 11 -3 38% 75.77 0.0
07 21:35 Calm 16.09 Fair CLR 12 -3 35% 75.77 0.0
07 21:15 Calm 16.09 Fair CLR 12 -3 35% 75.77 0.0
07 20:55 Calm 16.09 Fair CLR 13 -3 33% 75.74 0.0
07 20:35 N 7 16.09 Fair CLR 14 -2 33% 75.72 0.0
07 20:15 N 11 16.09 Fair CLR 14 -2 33% 75.72 0.0
07 19:55 N 17 16.09 Fair CLR 15 -2 31% 75.72 0.0
07 19:35 NW 15 16.09 Fair CLR 15 -2 31% 75.69 0.0
07 19:15 NW 17 16.09 Fair CLR 16 -2 29% 75.69 0.0
07 18:55 NW 15 16.09 Fair CLR 16 -2 29% 75.69 0.0
07 18:35 NW 15 16.09 Fair CLR 16 -2 29% 75.72 0.0
07 18:15 NW 17 16.09 Fair CLR 16 -3 27% 75.72 0.0
07 17:55 NW 19 G 30 16.09 Fair CLR 16 -3 27% 75.72 0.0
07 17:35 NW 24 G 33 16.09 Fair CLR 17 -2 27% 75.72 0.0
07 17:15 NW 26 G 31 16.09 Fair CLR 17 -2 27% 75.72 0.0
07 16:55 NW 13 G 26 16.09 Fair CLR 16 -2 29% 75.74 0.0
07 16:35 NW 20 G 30 16.09 Fair CLR 16 -2 29% 75.74 0.0
07 16:15 NW 19 G 31 16.09 Fair CLR 16 -2 29% 75.77 0.0
07 15:55 N 17 G 37 16.09 Fair CLR 16 -2 29% 75.77 0.0
07 15:35 NW 22 G 31 16.09 Fair CLR 16 -2 29% 75.79 0.0
07 15:15 NW 13 G 31 16.09 Fair CLR 16 -2 29% 75.79 0.0
07 14:55 N 17 G 39 16.09 Fair CLR 15 -3 29% 75.82 0.0
07 14:35 NW 20 G 30 16.09 Fair CLR 14 -3 31% 75.82 0.0
07 14:15 NW 24 G 33 16.09 Fair CLR 15 -2 31% 75.84 0.0
07 13:55 NW 19 G 37 16.09 Fair CLR 14 -3 31% 75.84 0.0
07 13:35 W 19 G 33 16.09 Fair CLR 14 -2 33% 75.84 0.0
07 13:15 N 7 G 30 16.09 Fair CLR 13 -3 33% 75.87 0.0
07 12:55 N 15 16.09 Fair CLR 13 -3 33% 75.9 0.0
07 12:35 NW 13 16.09 Fair CLR 13 -3 33% 75.9 0.0
07 12:15 NE 11 16.09 Fair CLR 12 -4 33% 75.92 0.0
07 11:55 W 9 16.09 Fair CLR 12 -3 35% 75.92 0.0
07 11:35 NE 9 16.09 Fair CLR 12 -4 33% 75.95 0.0
07 11:15 E 6 16.09 Fair CLR 11 -3 38% 75.95 0.0
07 10:55 NE 6 16.09 Fair CLR 11 -4 35% 75.95 0.0
07 10:35 N 7 16.09 Fair CLR 11 -3 38% 75.95 0.0
07 10:15 N 6 16.09 Fair CLR 10 -3 40% 75.95 0.0
07 09:55 NE 6 16.09 Fair CLR 10 -3 40% 75.95 0.0
07 09:35 NE 7 16.09 Fair CLR 9 -3 43% 8 75.95 0.0
07 09:15 Calm 16.09 Fair CLR 9 -1 50% 75.95 0.0
07 08:55 N 6 16.09 Fair CLR 8 0 57% 75.95 0.0
07 08:35 E 6 16.09 Partly Cloudy SCT090 8 0 57% 75.95 0.0
07 08:15 E 6 16.09 Mostly Cloudy BKN090 7 0 61% 75.95 0.0
07 07:55 Calm 16.09 Overcast OVC090 7 -1 57% 75.97 0.0
07 07:35 Calm 16.09 Mostly Cloudy SCT041 SCT070 BKN090 6 -1 61% 75.97 0.0
07 07:15 S 6 16.09 Mostly Cloudy SCT070 BKN090 4 0 75% 75.97 0.0
Date Time (cdt) Wind (kph) Vis. (km) Weather Sky Cond. Air Dwpt Max. Min. Relative Humidity Wind Chill (°C) Heat Index (°C) altimeter (cm) sea level (mb) 1 hr 3 hr 6 hr
6 hour
Temperature (ºC) Pressure Precipitation (cm)